Startpagina
METAR-TAF:

METAR-TAF

Vliegvelden :

L9-ff-1, Nederland

Productieplatform

breedte: 53-36-52N, lengte: 4-57-37E, hoogte: 30 m

Actueel weer

Dit bericht is 36 minuten geleden gemaakt, om 14:55 UTC
Wind 22 kt uit het oostnoordoosten
Temperatuur 16°C
Vochtigheid 72%
Druk 1009 hPa
Zicht 10 km of meer

METAR: EHMG 271455Z AUTO 07022KT 9999 NSC 16/11 Q1009

Tijdstip: 17:31 (15:31 UTC)


TAF: ontbreekt

Waarnemingen en weersverwachtingen van meer dan 4000 vliegvelden (METAR en TAF).

De beschikbare stations zijn de gele en rode punten op de kaart.

Ga met uw muis naar het station om de naam te zien.

Klik dan om waarnemingen en weersverwachtingen te zien.

kaart wijzigen: klik op de groene knoppen met een zwart kruis om in te zoomen, op de groene knop met een streepje om uit te zoomen of op de groene pijlen voor aangrenzende kaarten.


METAR-TAF: